Time;durP1;ratioP1;P1;durP2;ratioP2;P2;SDS_P1;SDS_P2;PMS_P1;PMS_P2;Temp;Humidity;BMP_temperature;BMP_pressure;BME280_temperature;BME280_humidity;BME280_pressure;Samples;Min_cycle;Max_cycle;Signal;HPM_P1;HPM_P2
2021/01/14 00:00:19;;;;;;;6.47;2.67;;;22.00;59.00;;;;;;4990048;28;20119;-70
2021/01/14 00:02:45;;;;;;;;;;;21.90;59.20;;;;;;4985697;28;20018;-70
2021/01/14 00:05:12;;;;;;;4.18;2.00;;;21.80;59.40;;;;;;4985910;28;19952;-70
2021/01/14 00:07:39;;;;;;;5.85;2.30;;;21.70;59.30;;;;;;4986343;28;20109;-70
2021/01/14 00:10:08;;;;;;;4.43;2.17;;;21.60;59.60;;;;;;4989488;28;20425;-70
2021/01/14 00:12:34;;;;;;;3.08;2.08;;;21.60;59.90;;;;;;4995447;28;20026;-70
2021/01/14 00:15:02;;;;;;;3.70;2.40;;;21.50;60.20;;;;;;4995040;28;20026;-70
2021/01/14 00:17:28;;;;;;;4.35;2.58;;;21.30;60.20;;;;;;4994311;28;20109;-69
2021/01/14 00:19:55;;;;;;;5.75;3.10;;;21.20;60.60;;;;;;4979820;28;20062;-69
2021/01/14 00:22:21;;;;;;;2.95;1.90;;;21.20;60.80;;;;;;4975907;28;20052;-70
2021/01/14 00:24:48;;;;;;;6.93;3.00;;;21.10;61.00;;;;;;4976631;28;20027;-73
2021/01/14 00:27:14;;;;;;;5.68;2.53;;;21.00;61.40;;;;;;4985853;28;20464;-70
2021/01/14 00:29:40;;;;;;;8.77;2.83;;;20.90;61.50;;;;;;4993293;28;20042;-69
2021/01/14 00:32:07;;;;;;;12.60;2.53;;;20.80;61.70;;;;;;4991114;28;20101;-69
2021/01/14 00:34:33;;;;;;;3.75;2.20;;;20.80;61.90;;;;;;4993643;28;20049;-70
2021/01/14 00:39:44;;;;;;;5.82;3.85;;;20.50;62.60;;;;;;4990025;28;20101;-70
2021/01/14 00:42:18;;;;;;;7.22;2.20;;;20.50;62.40;;;;;;4994721;28;20030;-69
2021/01/14 00:44:44;;;;;;;9.13;2.80;;;20.40;62.80;;;;;;4990645;28;20050;-69
2021/01/14 00:47:10;;;;;;;4.40;2.30;;;20.20;63.20;;;;;;4991387;28;20026;-70
2021/01/14 00:49:37;;;;;;;7.10;3.03;;;20.20;62.90;;;;;;4997249;28;20038;-72
2021/01/14 00:52:04;;;;;;;4.97;2.60;;;20.20;62.70;;;;;;4994808;28;20105;-71
2021/01/14 00:54:30;;;;;;;5.75;3.13;;;20.30;62.50;;;;;;4987062;28;20483;-70
2021/01/14 00:56:56;;;;;;;6.97;3.10;;;20.30;62.40;;;;;;4984639;28;20022;-70
2021/01/14 00:59:23;;;;;;;4.00;2.83;;;20.20;62.40;;;;;;4992415;28;20345;-71
2021/01/14 01:01:49;;;;;;;7.85;3.92;;;20.20;62.60;;;;;;4991790;28;20030;-70
2021/01/14 01:04:15;;;;;;;7.40;3.63;;;20.10;63.00;;;;;;5000712;28;20026;-70
2021/01/14 01:06:42;;;;;;;5.43;2.55;;;20.00;63.10;;;;;;4987824;28;20026;-70
2021/01/14 01:09:11;;;;;;;8.10;3.70;;;20.00;62.70;;;;;;4993872;28;20045;-70
2021/01/14 01:11:38;;;;;;;10.40;3.65;;;19.90;63.40;;;;;;4995588;28;20026;-70
2021/01/14 01:14:05;;;;;;;7.63;3.25;;;19.90;62.90;;;;;;4988789;28;20026;-69
2021/01/14 01:16:32;;;;;;;11.52;3.92;;;19.90;62.80;;;;;;4994761;28;20019;-70
2021/01/14 01:18:59;;;;;;;5.40;3.35;;;19.90;62.60;;;;;;4982112;28;20026;-70
2021/01/14 01:21:25;;;;;;;5.03;3.08;;;19.80;62.30;;;;;;4985552;28;20026;-70
2021/01/14 01:23:52;;;;;;;4.70;3.38;;;19.80;62.30;;;;;;4987450;28;20520;-71
2021/01/14 01:26:20;;;;;;;8.70;3.85;;;19.80;62.10;;;;;;4994385;28;20065;-72
2021/01/14 01:28:47;;;;;;;8.55;4.28;;;19.70;62.30;;;;;;4994043;28;20081;-70
2021/01/14 01:31:14;;;;;;;8.13;4.57;;;19.70;62.40;;;;;;4981554;28;20030;-74
2021/01/14 01:33:42;;;;;;;9.15;4.97;;;19.60;62.50;;;;;;4988891;28;20019;-71
2021/01/14 01:36:12;;;;;;;6.70;3.72;;;19.50;62.70;;;;;;4995345;28;20019;-71
2021/01/14 01:38:39;;;;;;;5.85;2.90;;;19.50;62.20;;;;;;4990671;28;20113;-71
2021/01/14 01:41:05;;;;;;;5.97;2.97;;;19.50;62.00;;;;;;4996406;28;20520;-71
2021/01/14 01:43:32;;;;;;;4.07;2.85;;;19.40;62.70;;;;;;4990810;28;20034;-71
2021/01/14 01:46:00;;;;;;;5.07;3.13;;;19.40;62.40;;;;;;5004528;28;20360;-71
2021/01/14 01:48:26;;;;;;;9.68;3.65;;;19.30;62.30;;;;;;4995198;28;20018;-72
2021/01/14 01:50:56;;;;;;;6.75;2.42;;;19.30;62.40;;;;;;4992321;28;20129;-72
2021/01/14 01:53:23;;;;;;;4.78;3.13;;;19.00;63.20;;;;;;4989420;28;20053;-71
2021/01/14 01:55:50;;;;;;;9.13;3.08;;;18.80;63.90;;;;;;4995110;28;20030;-72
2021/01/14 01:58:21;;;;;;;4.65;2.97;;;18.80;62.90;;;;;;4985326;28;20022;-70
2021/01/14 02:00:49;;;;;;;7.13;2.55;;;18.70;64.00;;;;;;4993141;28;20415;-71
2021/01/14 02:03:16;;;;;;;6.00;2.78;;;18.50;64.50;;;;;;4991157;28;20117;-71
2021/01/14 02:05:43;;;;;;;7.65;3.70;;;18.40;63.60;;;;;;4993316;28;20436;-72
2021/01/14 02:08:36;;;;;;;11.02;4.35;;;18.40;63.70;;;;;;4990029;28;20030;-70
2021/01/14 02:11:11;;;;;;;7.60;4.18;;;18.40;63.80;;;;;;4992030;28;20093;-70
2021/01/14 02:13:46;;;;;;;7.22;4.18;;;18.30;63.90;;;;;;4988020;28;20031;-69
2021/01/14 02:16:14;;;;;;;7.05;4.00;;;18.20;65.20;;;;;;4988377;28;20101;-70
2021/01/14 02:18:44;;;;;;;6.90;4.10;;;18.00;65.10;;;;;;4983859;28;20073;-70
2021/01/14 02:21:14;;;;;;;4.85;3.25;;;17.90;65.90;;;;;;4987499;28;20019;-69
2021/01/14 02:23:51;;;;;;;4.75;3.10;;;17.80;65.10;;;;;;4995003;28;20030;-70
2021/01/14 02:26:30;;;;;;;13.63;5.28;;;17.80;65.20;;;;;;4985639;28;20030;-70
2021/01/14 02:28:58;;;;;;;14.30;5.72;;;17.70;65.60;;;;;;4990453;28;20093;-70
2021/01/14 02:31:25;;;;;;;6.45;4.13;;;17.70;65.70;;;;;;4987825;28;20725;-70
2021/01/14 02:33:53;;;;;;;7.25;5.20;;;17.60;65.50;;;;;;4991235;28;20041;-70
2021/01/14 02:36:21;;;;;;;11.98;5.07;;;17.50;66.10;;;;;;4987766;28;20069;-70
2021/01/14 02:38:47;;;;;;;6.82;4.70;;;17.50;65.90;;;;;;4993819;28;20363;-72
2021/01/14 02:41:14;;;;;;;11.90;4.25;;;17.50;66.00;;;;;;4989742;28;20026;-70
2021/01/14 02:43:41;;;;;;;6.13;4.28;;;17.40;66.20;;;;;;4993601;28;20026;-70
2021/01/14 02:46:09;;;;;;;7.57;4.13;;;17.40;66.30;;;;;;4994299;28;20045;-73
2021/01/14 02:49:06;;;;;;;7.70;5.00;;;17.40;64.80;;;;;;4992926;28;20035;-72
2021/01/14 02:51:50;;;;;;;7.03;3.55;;;17.30;65.40;;;;;;4993020;28;20382;-73
2021/01/14 02:54:17;;;;;;;11.27;5.10;;;17.10;65.40;;;;;;4993185;28;20071;-72
2021/01/14 02:56:49;;;;;;;8.60;5.32;;;17.10;66.50;;;;;;4988581;28;20342;-72
2021/01/14 02:59:16;;;;;;;10.30;5.75;;;17.00;66.60;;;;;;4978963;28;20085;-71
2021/01/14 03:01:43;;;;;;;9.55;5.25;;;17.00;66.70;;;;;;4987864;28;20096;-69
2021/01/14 03:04:10;;;;;;;9.18;4.68;;;17.00;66.40;;;;;;5000057;28;20085;-70
2021/01/14 03:06:36;;;;;;;8.15;4.53;;;16.90;66.70;;;;;;4989052;28;20034;-70
2021/01/14 03:09:04;;;;;;;8.13;4.55;;;16.80;66.80;;;;;;4990683;28;20047;-71
2021/01/14 03:11:32;;;;;;;11.55;5.13;;;16.80;67.10;;;;;;4991509;28;20046;-71
2021/01/14 03:13:59;;;;;;;10.38;4.63;;;16.70;67.20;;;;;;4984732;28;20086;-69
2021/01/14 03:16:26;;;;;;;12.13;5.35;;;16.70;66.80;;;;;;4994634;28;20046;-70
2021/01/14 03:18:53;;;;;;;10.95;5.20;;;16.70;67.60;;;;;;4995112;28;20027;-70
2021/01/14 03:21:23;;;;;;;10.13;5.30;;;16.70;66.00;;;;;;4993164;28;20033;-71
2021/01/14 03:23:51;;;;;;;12.60;5.88;;;16.70;66.20;;;;;;5003838;28;20519;-71
2021/01/14 03:26:18;;;;;;;17.08;6.25;;;16.80;66.50;;;;;;5001493;28;20039;-72
2021/01/14 03:28:47;;;;;;;10.40;6.65;;;16.90;67.40;;;;;;4994342;28;20026;-72
2021/01/14 03:31:15;;;;;;;17.42;6.47;;;16.90;67.10;;;;;;4995266;28;20057;-72
2021/01/14 03:33:42;;;;;;;11.88;6.53;;;16.80;67.00;;;;;;4998109;28;20084;-73
2021/01/14 03:36:13;;;;;;;10.68;5.10;;;16.90;68.10;;;;;;4993601;28;20085;-72
2021/01/14 03:38:39;;;;;;;15.57;6.38;;;16.80;68.30;;;;;;4991647;28;20368;-72
2021/01/14 03:41:17;;;;;;;11.70;5.18;;;16.70;67.90;;;;;;4996721;28;20399;-73
2021/01/14 03:43:44;;;;;;;21.40;7.75;;;16.70;67.90;;;;;;4983634;28;20677;-74
2021/01/14 03:46:16;;;;;;;10.32;4.85;;;16.70;68.70;;;;;;4992186;28;20475;-74
2021/01/14 03:48:45;;;;;;;10.63;5.35;;;16.80;69.10;;;;;;5001773;28;20036;-74
2021/01/14 03:51:20;;;;;;;11.90;5.93;;;16.80;68.60;;;;;;5002129;28;20517;-72
2021/01/14 03:53:48;;;;;;;13.65;6.05;;;16.80;69.30;;;;;;4990471;28;20034;-72
2021/01/14 03:56:15;;;;;;;10.68;5.22;;;16.60;69.80;;;;;;4994585;28;20022;-70
2021/01/14 03:58:42;;;;;;;18.00;6.60;;;16.50;70.40;;;;;;4994598;28;20057;-71
2021/01/14 04:01:09;;;;;;;12.27;7.38;;;16.40;70.40;;;;;;4993668;28;20132;-70
2021/01/14 04:03:43;;;;;;;10.25;6.00;;;16.60;70.50;;;;;;4990766;28;20475;-70
2021/01/14 04:06:12;;;;;;;19.30;7.63;;;16.80;71.00;;;;;;4992519;28;20488;-70
2021/01/14 04:08:39;;;;;;;15.52;6.45;;;16.90;70.20;;;;;;4993987;28;20472;-70
2021/01/14 04:11:05;;;;;;;18.25;7.47;;;16.80;69.40;;;;;;4988681;28;20415;-69
2021/01/14 04:13:32;;;;;;;21.88;12.30;;;16.80;70.00;;;;;;4984622;28;20038;-70
2021/01/14 04:15:59;;;;;;;15.60;11.55;;;16.80;70.50;;;;;;4987104;28;20030;-70
2021/01/14 04:18:25;;;;;;;23.55;11.55;;;16.70;70.50;;;;;;5008794;28;20026;-69
2021/01/14 04:20:52;;;;;;;17.02;9.32;;;16.70;70.40;;;;;;4992527;28;20034;-71
2021/01/14 04:23:19;;;;;;;9.63;8.10;;;16.60;70.40;;;;;;4987605;28;20529;-70
2021/01/14 04:25:46;;;;;;;18.58;8.65;;;16.40;71.00;;;;;;4986069;28;20092;-71
2021/01/14 04:28:14;;;;;;;18.27;8.75;;;16.40;70.60;;;;;;4987569;28;20512;-70
2021/01/14 04:30:41;;;;;;;14.48;7.80;;;16.30;70.70;;;;;;4978161;28;20370;-70
2021/01/14 04:33:14;;;;;;;14.20;6.65;;;16.30;71.40;;;;;;4992461;28;20029;-71
2021/01/14 04:35:47;;;;;;;25.38;14.68;;;16.20;71.50;;;;;;4993299;28;20018;-70
2021/01/14 04:38:15;;;;;;;26.45;12.85;;;16.20;70.80;;;;;;4980763;28;20030;-70
2021/01/14 04:40:43;;;;;;;17.70;11.52;;;16.10;70.90;;;;;;4987331;28;20026;-71
2021/01/14 04:43:12;;;;;;;12.05;8.57;;;16.10;70.70;;;;;;4986864;28;20026;-70
2021/01/14 04:45:43;;;;;;;11.98;7.22;;;16.00;71.30;;;;;;4974778;28;20045;-70
2021/01/14 04:48:12;;;;;;;8.38;4.78;;;16.00;70.60;;;;;;4984891;28;20030;-73
2021/01/14 04:50:40;;;;;;;10.82;6.57;;;15.80;72.00;;;;;;5016105;28;20033;-70
2021/01/14 04:53:07;;;;;;;12.05;7.20;;;15.70;72.10;;;;;;4984416;28;20033;-70
2021/01/14 04:55:58;;;;;;;11.90;6.60;;;15.80;71.90;;;;;;4979039;28;20461;-70
2021/01/14 04:58:27;;;;;;;19.75;6.78;;;15.80;71.30;;;;;;4981800;28;20476;-70
2021/01/14 05:00:56;;;;;;;15.05;7.85;;;15.80;71.90;;;;;;4980023;28;20038;-71
2021/01/14 05:03:25;;;;;;;9.15;5.88;;;15.80;72.00;;;;;;4996904;28;20027;-70
2021/01/14 05:05:52;;;;;;;7.90;5.18;;;15.70;72.10;;;;;;4990084;28;20034;-72
2021/01/14 05:08:29;;;;;;;8.90;6.50;;;15.60;72.20;;;;;;4985340;28;20388;-70
2021/01/14 05:10:57;;;;;;;14.80;7.60;;;15.60;71.70;;;;;;4988874;28;20128;-70
2021/01/14 05:13:24;;;;;;;12.48;6.15;;;15.60;71.50;;;;;;4991797;28;20026;-69
2021/01/14 05:15:51;;;;;;;12.00;6.18;;;15.60;71.70;;;;;;4986140;28;20018;-69
2021/01/14 05:18:18;;;;;;;15.77;5.18;;;15.50;71.40;;;;;;4990775;28;20068;-70
2021/01/14 05:20:44;;;;;;;14.82;5.57;;;15.40;71.60;;;;;;4992044;28;20045;-69
2021/01/14 05:23:13;;;;;;;13.18;6.95;;;15.40;70.70;;;;;;4986259;28;20054;-72
2021/01/14 05:25:57;;;;;;;10.50;6.00;;;15.40;71.30;;;;;;4993003;28;20138;-71
2021/01/14 05:28:25;;;;;;;20.77;7.35;;;15.50;70.70;;;;;;4992117;28;20037;-71
2021/01/14 05:30:55;;;;;;;10.80;6.18;;;15.40;70.80;;;;;;4990786;28;20097;-71
2021/01/14 05:33:23;;;;;;;15.52;6.40;;;15.30;71.00;;;;;;4996172;28;20045;-71
2021/01/14 05:35:53;;;;;;;13.15;6.90;;;15.20;71.20;;;;;;4996563;28;20053;-71
2021/01/14 05:38:30;;;;;;;14.82;6.95;;;15.20;71.00;;;;;;4996227;28;20030;-71
2021/01/14 05:41:18;;;;;;;13.77;5.38;;;15.10;72.20;;;;;;4989529;28;20448;-71
2021/01/14 05:43:58;;;;;;;7.35;5.10;;;15.00;72.60;;;;;;4989709;28;20049;-69
2021/01/14 05:46:25;;;;;;;15.60;7.15;;;15.00;72.70;;;;;;4995103;28;20050;-70
2021/01/14 05:48:54;;;;;;;17.73;7.15;;;14.90;72.70;;;;;;4984364;28;20038;-70
2021/01/14 05:51:26;;;;;;;11.57;7.72;;;15.00;71.60;;;;;;4990985;28;20093;-69
2021/01/14 05:54:06;;;;;;;17.95;7.45;;;15.10;71.80;;;;;;4984657;28;20031;-73
2021/01/14 05:56:38;;;;;;;12.90;7.20;;;15.00;71.60;;;;;;4987762;28;20031;-70
2021/01/14 05:59:12;;;;;;;12.90;7.57;;;14.90;72.20;;;;;;4992647;28;20033;-69
2021/01/14 06:01:59;;;;;;;10.60;5.97;;;14.90;72.00;;;;;;4985149;28;20060;-69
2021/01/14 06:04:30;;;;;;;20.77;9.88;;;14.80;72.00;;;;;;4996561;28;20034;-71
2021/01/14 06:07:04;;;;;;;20.75;9.40;;;14.80;71.80;;;;;;4996207;28;20022;-70
2021/01/14 06:09:45;;;;;;;26.20;10.60;;;15.00;72.20;;;;;;4998943;28;20033;-73
2021/01/14 06:12:13;;;;;;;16.98;9.07;;;15.00;72.20;;;;;;4994899;28;20026;-71
2021/01/14 06:14:40;;;;;;;15.95;8.80;;;14.90;72.10;;;;;;4991512;28;20034;-70
2021/01/14 06:17:08;;;;;;;19.10;8.60;;;14.70;71.80;;;;;;5000343;28;20022;-72
2021/01/14 06:19:35;;;;;;;19.52;10.10;;;14.70;72.20;;;;;;4988094;28;20057;-72
2021/01/14 06:22:03;;;;;;;21.05;8.57;;;14.70;72.90;;;;;;4989885;28;20154;-72
2021/01/14 06:24:37;;;;;;;24.38;8.90;;;14.60;73.30;;;;;;4990276;28;20125;-71
2021/01/14 06:27:06;;;;;;;16.60;9.90;;;14.60;73.40;;;;;;4993176;28;20105;-69
2021/01/14 06:29:37;;;;;;;18.13;9.82;;;14.60;73.50;;;;;;4998246;28;20538;-70
2021/01/14 06:32:20;;;;;;;23.17;10.55;;;14.50;72.40;;;;;;4991665;28;20060;-70
2021/01/14 06:34:48;;;;;;;20.08;9.80;;;14.60;72.20;;;;;;4991526;28;20046;-71
2021/01/14 06:37:20;;;;;;;22.85;10.88;;;14.60;72.40;;;;;;4995739;28;20463;-72
2021/01/14 06:39:59;;;;;;;27.75;13.38;;;14.60;72.50;;;;;;4992851;28;20416;-74
2021/01/14 06:42:28;;;;;;;26.83;13.98;;;14.60;72.60;;;;;;4990270;28;20357;-71
2021/01/14 06:44:56;;;;;;;29.30;15.20;;;14.60;72.70;;;;;;4996067;28;20030;-72
2021/01/14 06:47:35;;;;;;;25.13;15.15;;;14.70;72.70;;;;;;4991125;28;20034;-69
2021/01/14 06:50:26;;;;;;;21.30;13.55;;;14.50;73.30;;;;;;4981174;28;20093;-71
2021/01/14 06:52:55;;;;;;;32.80;16.05;;;14.40;72.90;;;;;;4977989;28;20045;-70
2021/01/14 06:55:24;;;;;;;33.75;17.55;;;14.50;73.10;;;;;;4987690;28;20468;-71
2021/01/14 06:58:11;;;;;;;32.63;17.45;;;14.40;72.90;;;;;;4989665;28;20049;-70
2021/01/14 07:00:40;;;;;;;39.33;18.95;;;14.40;73.00;;;;;;4985186;28;20037;-71
2021/01/14 07:03:24;;;;;;;32.05;21.08;;;14.40;73.00;;;;;;4977476;28;20113;-70
2021/01/14 07:05:54;;;;;;;35.75;19.27;;;14.30;73.00;;;;;;4987305;28;20039;-71
2021/01/14 07:08:54;;;;;;;34.92;18.35;;;14.20;73.60;;;;;;4993540;28;20045;-70
2021/01/14 07:11:27;;;;;;;32.58;17.70;;;14.10;73.60;;;;;;4983137;28;20034;-71
2021/01/14 07:13:57;;;;;;;32.88;19.90;;;14.10;73.20;;;;;;4994345;28;20106;-70
2021/01/14 07:16:25;;;;;;;36.22;18.00;;;14.10;73.30;;;;;;4990415;28;20027;-71
2021/01/14 07:18:52;;;;;;;31.75;19.83;;;14.10;73.70;;;;;;4980850;28;20073;-72
2021/01/14 07:21:34;;;;;;;32.55;20.20;;;14.00;73.90;;;;;;4994392;28;20105;-70
2021/01/14 07:24:20;;;;;;;36.50;23.10;;;14.00;73.20;;;;;;4991452;28;20045;-71
2021/01/14 07:26:50;;;;;;;40.42;21.20;;;14.10;73.20;;;;;;4982332;28;20065;-70
2021/01/14 07:29:17;;;;;;;37.85;21.83;;;14.00;73.30;;;;;;4992025;28;20042;-70
2021/01/14 07:31:48;;;;;;;37.65;22.55;;;14.00;73.00;;;;;;4984239;28;20045;-70
2021/01/14 07:34:36;;;;;;;41.58;23.90;;;13.90;73.60;;;;;;4987013;28;20018;-70
2021/01/14 07:37:03;;;;;;;35.63;20.27;;;13.90;73.30;;;;;;4992164;28;20531;-70
2021/01/14 07:39:49;;;;;;;47.92;28.42;;;13.80;74.00;;;;;;4983112;28;20109;-71
2021/01/14 07:42:34;;;;;;;42.28;26.27;;;13.80;73.50;;;;;;4983828;28;20033;-70
2021/01/14 07:45:05;;;;;;;43.38;26.38;;;13.70;73.60;;;;;;4989486;28;20022;-70
2021/01/14 07:47:34;;;;;;;40.63;23.38;;;13.70;74.30;;;;;;4986640;28;20029;-70
2021/01/14 07:50:22;;;;;;;65.40;29.48;;;13.60;74.30;;;;;;4992652;28;20397;-70
2021/01/14 07:52:58;;;;;;;54.47;30.90;;;13.60;73.60;;;;;;4992667;28;20030;-72
2021/01/14 07:55:28;;;;;;;49.22;28.90;;;13.70;73.40;;;;;;4981541;28;20460;-70
2021/01/14 07:58:04;;;;;;;52.97;32.58;;;13.70;73.40;;;;;;4983782;28;20377;-70
2021/01/14 08:00:31;;;;;;;63.47;36.13;;;13.70;73.40;;;;;;4984040;28;20840;-69
2021/01/14 08:03:14;;;;;;;59.28;34.75;;;13.70;73.80;;;;;;4993061;28;20098;-72
2021/01/14 08:05:58;;;;;;;57.90;33.78;;;13.70;74.10;;;;;;4984987;28;20027;-70
2021/01/14 08:08:37;;;;;;;68.28;41.17;;;13.70;73.90;;;;;;4980451;28;20531;-70
2021/01/14 08:11:11;;;;;;;83.50;48.05;;;13.90;74.50;;;;;;4978600;28;20031;-70
2021/01/14 08:14:11;;;;;;;87.53;47.58;;;14.00;74.40;;;;;;4978476;28;20025;-70
2021/01/14 08:16:54;;;;;;;72.38;43.63;;;14.00;74.80;;;;;;4991402;28;20069;-70
2021/01/14 08:19:28;;;;;;;87.70;47.45;;;13.80;74.20;;;;;;4993433;28;20109;-70
2021/01/14 08:22:05;;;;;;;88.38;49.25;;;13.90;74.40;;;;;;4991114;28;20050;-70
2021/01/14 08:24:45;;;;;;;89.35;47.47;;;13.90;74.50;;;;;;4985601;28;20513;-71
2021/01/14 08:27:16;;;;;;;81.60;47.40;;;13.90;74.50;;;;;;4987896;28;20105;-70
2021/01/14 08:30:05;;;;;;;78.18;46.92;;;13.70;74.50;;;;;;4988294;28;20031;-71
2021/01/14 08:32:39;;;;;;;79.20;47.45;;;13.70;74.40;;;;;;4979914;28;20030;-70
2021/01/14 08:35:15;;;;;;;81.68;48.83;;;13.60;74.40;;;;;;4989795;28;20098;-70
2021/01/14 08:37:48;;;;;;;87.32;49.13;;;13.80;74.80;;;;;;4981937;28;20019;-69
2021/01/14 08:40:26;;;;;;;70.85;40.65;;;13.70;74.30;;;;;;4989703;28;20030;-70
2021/01/14 08:43:16;;;;;;;88.15;47.20;;;13.50;74.40;;;;;;4983535;28;20030;-71
2021/01/14 08:45:54;;;;;;;99.15;50.78;;;13.60;74.80;;;;;;4979881;28;20062;-70
2021/01/14 08:48:27;;;;;;;87.45;48.85;;;13.60;74.70;;;;;;4984316;28;20026;-70
2021/01/14 08:50:56;;;;;;;84.50;49.05;;;13.50;74.60;;;;;;4986591;28;20080;-74
2021/01/14 08:53:26;;;;;;;89.45;51.40;;;13.50;74.80;;;;;;4989661;28;20056;-70
2021/01/14 08:55:58;;;;;;;83.65;50.83;;;13.70;75.20;;;;;;4984502;28;20034;-70
2021/01/14 08:58:44;;;;;;;90.60;50.85;;;13.70;74.50;;;;;;4982079;28;20037;-70
2021/01/14 09:01:27;;;;;;;94.70;52.33;;;13.80;74.20;;;;;;4989858;28;20456;-70
2021/01/14 09:03:54;;;;;;;;;;;13.80;74.20;;;;;;4984828;28;20034;-70
2021/01/14 09:06:37;;;;;;;58.83;33.47;;;13.70;74.30;;;;;;4978036;28;20406;-70
2021/01/14 09:09:04;;;;;;;72.90;44.53;;;13.40;75.00;;;;;;4984090;28;20036;-72
2021/01/14 09:11:32;;;;;;;77.22;46.85;;;13.30;74.70;;;;;;4988871;28;20026;-70
2021/01/14 09:14:09;;;;;;;66.82;41.60;;;13.30;75.10;;;;;;4994171;28;20046;-71
2021/01/14 09:16:38;;;;;;;76.35;44.13;;;13.20;75.20;;;;;;4984262;28;20014;-71
2021/01/14 09:19:15;;;;;;;68.70;39.92;;;13.20;75.00;;;;;;4986393;28;20026;-70
2021/01/14 09:21:41;;;;;;;56.85;34.15;;;13.20;74.70;;;;;;4975543;28;20397;-70
2021/01/14 09:24:09;;;;;;;56.90;33.42;;;13.10;75.10;;;;;;4984933;28;20121;-69
2021/01/14 09:26:42;;;;;;;57.20;37.25;;;13.10;75.20;;;;;;4993039;28;20334;-69
2021/01/14 09:29:13;;;;;;;56.40;35.25;;;13.10;74.90;;;;;;4991736;28;20326;-70
2021/01/14 09:31:43;;;;;;;68.25;41.10;;;13.00;75.20;;;;;;4990438;28;20093;-70
2021/01/14 09:34:10;;;;;;;71.55;40.28;;;13.00;74.60;;;;;;4985593;28;20042;-70
2021/01/14 09:36:37;;;;;;;69.22;42.88;;;13.10;74.40;;;;;;4985154;28;20461;-71
2021/01/14 09:39:07;;;;;;;71.78;41.50;;;13.00;74.20;;;;;;4991069;28;20022;-70
2021/01/14 09:41:35;;;;;;;76.88;50.00;;;13.00;74.50;;;;;;4993188;28;20030;-70
2021/01/14 09:44:10;;;;;;;58.30;34.35;;;13.00;74.70;;;;;;4979627;28;20352;-69
2021/01/14 09:46:39;;;;;;;51.95;34.75;;;12.80;75.70;;;;;;4985743;28;20138;-69
2021/01/14 09:49:11;;;;;;;79.75;42.40;;;12.70;75.20;;;;;;4986823;28;20882;-69
2021/01/14 09:51:38;;;;;;;52.55;31.98;;;12.70;74.80;;;;;;4985627;28;20069;-70
2021/01/14 09:54:06;;;;;;;54.08;34.00;;;12.70;75.00;;;;;;4988482;28;20026;-70
2021/01/14 09:56:38;;;;;;;56.55;33.75;;;12.40;76.60;;;;;;4998009;28;20023;-70
2021/01/14 09:59:32;;;;;;;65.38;39.03;;;12.50;76.60;;;;;;4992041;28;20019;-70
2021/01/14 10:02:00;;;;;;;53.88;35.88;;;12.60;75.00;;;;;;4985387;28;20152;-69
2021/01/14 10:04:28;;;;;;;68.00;38.70;;;12.50;75.00;;;;;;4995394;28;20021;-70
2021/01/14 10:07:03;;;;;;;62.75;38.17;;;12.50;75.20;;;;;;4995190;28;20105;-69
2021/01/14 10:09:34;;;;;;;68.38;40.30;;;12.50;74.70;;;;;;4989079;28;20014;-73
2021/01/14 10:12:01;;;;;;;73.90;42.42;;;12.40;74.90;;;;;;4983460;28;20092;-70
2021/01/14 10:14:27;;;;;;;67.90;40.72;;;12.40;74.60;;;;;;4993391;28;20026;-70
2021/01/14 10:16:54;;;;;;;69.28;41.05;;;12.40;74.30;;;;;;5002786;28;20031;-69
2021/01/14 10:19:21;;;;;;;84.25;47.78;;;12.40;74.20;;;;;;4997600;28;20089;-71
2021/01/14 10:21:51;;;;;;;81.25;50.08;;;12.50;74.30;;;;;;4986304;28;20457;-72
2021/01/14 10:26:54;;;;;;;69.03;40.65;;;12.50;75.00;;;;;;3154793;23;20495;-70
2021/01/14 10:29:39;;;;;;;81.10;47.80;;;12.30;75.30;;;;;;4984355;28;20038;-71
2021/01/14 10:32:10;;;;;;;88.85;49.17;;;12.30;74.70;;;;;;4972265;28;20055;-69
2021/01/14 10:34:48;;;;;;;74.90;44.30;;;12.40;75.20;;;;;;4969993;28;20109;-69
2021/01/14 10:37:25;;;;;;;77.10;43.20;;;12.20;75.30;;;;;;4975544;28;20453;-70
2021/01/14 10:39:59;;;;;;;68.50;41.63;;;12.20;75.50;;;;;;4977760;28;20034;-77
2021/01/14 10:42:38;;;;;;;65.25;40.00;;;12.10;76.40;;;;;;4974527;28;20026;-72
2021/01/14 10:45:13;;;;;;;80.63;47.25;;;11.80;77.50;;;;;;4977850;28;20054;-71
2021/01/14 10:47:41;;;;;;;90.85;51.78;;;12.10;75.80;;;;;;4974977;28;20097;-70
2021/01/14 10:50:21;;;;;;;68.47;40.13;;;12.30;75.10;;;;;;4975585;28;20027;-71
2021/01/14 10:53:04;;;;;;;66.53;41.90;;;12.20;75.70;;;;;;4976031;28;20035;-71
2021/01/14 10:55:31;;;;;;;69.85;40.25;;;11.90;76.90;;;;;;4976758;28;20353;-71
2021/01/14 10:57:59;;;;;;;96.35;47.45;;;11.90;77.50;;;;;;4976282;28;20030;-71
2021/01/14 11:00:34;;;;;;;65.78;37.13;;;12.00;75.80;;;;;;4975761;28;20372;-73
2021/01/14 11:03:03;;;;;;;54.83;35.17;;;12.00;76.40;;;;;;4972855;28;20117;-71
2021/01/14 11:05:45;;;;;;;52.00;33.47;;;11.90;76.70;;;;;;4969524;28;20125;-71
2021/01/14 11:08:12;;;;;;;;;;;11.90;76.60;;;;;;4972974;28;20387;-71
2021/01/14 11:10:43;;;;;;;57.10;35.00;;;12.00;75.60;;;;;;4975326;28;19918;-70
2021/01/14 11:13:11;;;;;;;51.92;33.25;;;12.00;75.50;;;;;;4973580;28;20033;-70
2021/01/14 11:15:38;;;;;;;49.20;33.15;;;11.90;75.80;;;;;;4977057;28;20023;-71
2021/01/14 11:18:07;;;;;;;50.63;31.45;;;11.80;76.00;;;;;;4965120;28;20027;-71
2021/01/14 11:20:33;;;;;;;47.92;31.65;;;11.80;75.90;;;;;;4974590;28;20135;-71
2021/01/14 11:23:00;;;;;;;44.78;32.30;;;11.70;76.40;;;;;;4975964;28;20049;-70
2021/01/14 11:25:27;;;;;;;51.90;35.85;;;11.70;76.50;;;;;;4975162;28;20463;-70
2021/01/14 11:27:53;;;;;;;62.53;40.22;;;11.70;76.00;;;;;;4975290;28;20037;-70
2021/01/14 11:30:24;;;;;;;60.67;38.85;;;11.80;75.20;;;;;;4974547;28;20507;-70
2021/01/14 11:32:50;;;;;;;42.25;30.30;;;11.80;75.60;;;;;;4975130;28;20038;-70
2021/01/14 11:35:17;;;;;;;57.33;36.55;;;11.80;75.90;;;;;;4976019;28;20101;-69
2021/01/14 11:37:44;;;;;;;52.42;30.98;;;11.80;75.60;;;;;;4973645;28;20114;-70
2021/01/14 11:40:11;;;;;;;62.45;37.90;;;11.80;75.80;;;;;;4973847;28;20089;-70
2021/01/14 11:42:37;;;;;;;49.63;30.55;;;11.80;75.70;;;;;;4969805;28;20053;-71
2021/01/14 11:45:04;;;;;;;42.00;27.20;;;11.80;75.70;;;;;;4974777;28;20470;-70
2021/01/14 11:47:31;;;;;;;45.90;29.90;;;11.80;76.00;;;;;;4974678;28;20460;-70
2021/01/14 11:49:57;;;;;;;48.38;32.85;;;11.70;75.70;;;;;;4974519;28;20085;-70
2021/01/14 11:52:23;;;;;;;53.33;36.83;;;11.70;75.60;;;;;;4976057;28;20031;-72
2021/01/14 11:54:51;;;;;;;40.47;26.50;;;11.80;75.00;;;;;;4973427;28;20058;-70
2021/01/14 11:57:17;;;;;;;59.78;35.85;;;11.70;75.50;;;;;;4960863;28;20031;-70
2021/01/14 11:59:44;;;;;;;59.15;36.15;;;11.70;75.00;;;;;;4966220;28;20023;-71
2021/01/14 12:02:11;;;;;;;56.65;34.17;;;11.80;75.00;;;;;;4974074;28;20026;-70
2021/01/14 12:04:37;;;;;;;49.05;31.73;;;11.80;75.20;;;;;;4977203;28;20027;-71
2021/01/14 12:07:03;;;;;;;45.08;31.38;;;11.70;75.50;;;;;;4974631;28;20038;-70
2021/01/14 12:09:31;;;;;;;50.00;31.52;;;11.70;75.50;;;;;;4975421;28;20472;-71
2021/01/14 12:11:57;;;;;;;46.30;32.08;;;11.70;75.00;;;;;;4973279;28;20034;-70
2021/01/14 12:14:24;;;;;;;49.92;31.35;;;11.80;75.00;;;;;;4975582;28;20031;-71
2021/01/14 12:16:50;;;;;;;43.45;28.10;;;11.80;74.80;;;;;;4969916;28;20360;-71
2021/01/14 12:19:17;;;;;;;47.95;28.38;;;11.80;75.30;;;;;;4974162;28;20064;-70
2021/01/14 12:21:43;;;;;;;35.88;24.35;;;11.70;75.20;;;;;;4974920;28;20027;-73
2021/01/14 12:24:10;;;;;;;46.55;28.55;;;11.60;75.70;;;;;;4975568;28;20060;-71
2021/01/14 12:26:36;;;;;;;47.88;30.45;;;11.70;75.50;;;;;;4976543;28;20523;-75
2021/01/14 12:29:03;;;;;;;45.92;27.98;;;11.80;76.20;;;;;;4977320;28;20061;-72
2021/01/14 12:31:38;;;;;;;44.17;28.10;;;11.80;75.70;;;;;;4974054;28;20472;-69
2021/01/14 12:34:05;;;;;;;42.95;28.65;;;11.70;75.90;;;;;;4970231;28;20031;-70
2021/01/14 12:36:32;;;;;;;45.72;30.83;;;11.80;76.00;;;;;;4975169;28;20027;-70
2021/01/14 12:38:58;;;;;;;46.00;27.95;;;11.90;76.30;;;;;;4974857;28;20034;-70
2021/01/14 12:41:34;;;;;;;43.92;28.85;;;12.00;76.00;;;;;;4973490;28;20027;-70
2021/01/14 12:44:02;;;;;;;37.42;26.77;;;12.00;76.00;;;;;;4975076;28;20337;-70
2021/01/14 12:46:33;;;;;;;36.00;24.40;;;12.00;76.60;;;;;;4975018;28;20034;-71
2021/01/14 12:48:59;;;;;;;29.40;21.00;;;11.80;79.10;;;;;;4974373;28;20039;-70
2021/01/14 12:51:26;;;;;;;27.08;18.08;;;11.80;79.20;;;;;;4972021;28;20069;-70
2021/01/14 12:53:52;;;;;;;29.65;19.40;;;11.80;78.50;;;;;;4974540;28;20454;-71
2021/01/14 12:56:18;;;;;;;25.85;19.60;;;11.80;78.60;;;;;;4975687;28;20527;-71
2021/01/14 12:58:45;;;;;;;23.83;18.48;;;11.80;78.40;;;;;;4972454;28;20023;-70